sensor_id;sensor_type;location;lat;lon;timestamp;pressure;altitude;pressure_sealevel;temperature;humidity
63654;BME280;49809;47.418;19.080;2022-12-17T00:03:28;99930.44;;;1.44;100.00
63654;BME280;49809;47.418;19.080;2022-12-17T00:07:13;99924.22;;;1.38;100.00
63654;BME280;49809;47.418;19.080;2022-12-17T00:10:48;99897.53;;;1.29;100.00
63654;BME280;49809;47.418;19.080;2022-12-17T00:14:33;99913.16;;;1.16;100.00
63654;BME280;49809;47.418;19.080;2022-12-17T00:18:26;99922.00;;;1.15;100.00
63654;BME280;49809;47.418;19.080;2022-12-17T00:22:03;99934.25;;;1.15;100.00
63654;BME280;49809;47.418;19.080;2022-12-17T00:25:39;99935.41;;;1.12;100.00
63654;BME280;49809;47.418;19.080;2022-12-17T00:29:24;99932.84;;;1.19;100.00
63654;BME280;49809;47.418;19.080;2022-12-17T00:32:59;99917.59;;;1.22;100.00
63654;BME280;49809;47.418;19.080;2022-12-17T00:36:53;99903.75;;;1.28;100.00
63654;BME280;49809;47.418;19.080;2022-12-17T00:40:50;99903.16;;;1.26;100.00
63654;BME280;49809;47.418;19.080;2022-12-17T00:44:40;99900.94;;;1.23;100.00
63654;BME280;49809;47.418;19.080;2022-12-17T00:48:35;99910.97;;;1.20;100.00
63654;BME280;49809;47.418;19.080;2022-12-17T00:52:12;99924.41;;;1.17;100.00
63654;BME280;49809;47.418;19.080;2022-12-17T00:56:06;99943.25;;;1.19;100.00
63654;BME280;49809;47.418;19.080;2022-12-17T00:59:45;99964.91;;;1.19;100.00
63654;BME280;49809;47.418;19.080;2022-12-17T01:03:24;99980.56;;;1.26;100.00
63654;BME280;49809;47.418;19.080;2022-12-17T01:07:18;99983.16;;;1.19;100.00
63654;BME280;49809;47.418;19.080;2022-12-17T01:11:01;99981.78;;;1.23;100.00
63654;BME280;49809;47.418;19.080;2022-12-17T01:14:35;100010.66;;;1.28;100.00
63654;BME280;49809;47.418;19.080;2022-12-17T01:18:17;100014.66;;;1.24;100.00
63654;BME280;49809;47.418;19.080;2022-12-17T01:21:53;100019.06;;;1.24;100.00
63654;BME280;49809;47.418;19.080;2022-12-17T01:25:37;100021.88;;;1.22;100.00
63654;BME280;49809;47.418;19.080;2022-12-17T01:29:13;100023.47;;;1.23;100.00
63654;BME280;49809;47.418;19.080;2022-12-17T01:32:50;100039.31;;;1.22;100.00
63654;BME280;49809;47.418;19.080;2022-12-17T01:36:42;100050.00;;;1.34;100.00
63654;BME280;49809;47.418;19.080;2022-12-17T01:40:20;100060.31;;;1.07;100.00
63654;BME280;49809;47.418;19.080;2022-12-17T01:44:44;100041.44;;;0.99;100.00
63654;BME280;49809;47.418;19.080;2022-12-17T01:48:45;100040.47;;;1.00;100.00
63654;BME280;49809;47.418;19.080;2022-12-17T01:52:39;100051.06;;;0.98;100.00
63654;BME280;49809;47.418;19.080;2022-12-17T01:56:21;100054.06;;;0.95;100.00
63654;BME280;49809;47.418;19.080;2022-12-17T02:00:02;100044.69;;;1.07;100.00
63654;BME280;49809;47.418;19.080;2022-12-17T02:04:01;100050.69;;;1.08;100.00
63654;BME280;49809;47.418;19.080;2022-12-17T02:12:17;100043.72;;;1.15;100.00
63654;BME280;49809;47.418;19.080;2022-12-17T02:15:56;100064.69;;;0.94;100.00
63654;BME280;49809;47.418;19.080;2022-12-17T02:19:52;100051.25;;;0.90;100.00
63654;BME280;49809;47.418;19.080;2022-12-17T02:27:33;100047.47;;;0.99;100.00
63654;BME280;49809;47.418;19.080;2022-12-17T02:31:07;100038.47;;;1.08;100.00
63654;BME280;49809;47.418;19.080;2022-12-17T02:34:57;100037.25;;;1.04;100.00
63654;BME280;49809;47.418;19.080;2022-12-17T02:38:51;100035.28;;;1.06;100.00
63654;BME280;49809;47.418;19.080;2022-12-17T02:42:43;100039.88;;;1.04;100.00
63654;BME280;49809;47.418;19.080;2022-12-17T02:46:39;100057.44;;;0.89;100.00
63654;BME280;49809;47.418;19.080;2022-12-17T02:50:30;100061.91;;;0.95;100.00
63654;BME280;49809;47.418;19.080;2022-12-17T02:54:20;100066.12;;;0.96;100.00
63654;BME280;49809;47.418;19.080;2022-12-17T02:57:55;100064.69;;;0.94;100.00
63654;BME280;49809;47.418;19.080;2022-12-17T03:01:31;100071.09;;;0.91;100.00
63654;BME280;49809;47.418;19.080;2022-12-17T03:05:15;100094.16;;;0.94;100.00
63654;BME280;49809;47.418;19.080;2022-12-17T03:08:51;100107.00;;;1.02;100.00
63654;BME280;49809;47.418;19.080;2022-12-17T03:12:38;100115.28;;;1.06;100.00
63654;BME280;49809;47.418;19.080;2022-12-17T03:16:39;100112.03;;;1.04;100.00
63654;BME280;49809;47.418;19.080;2022-12-17T03:20:20;100108.84;;;1.08;100.00
63654;BME280;49809;47.418;19.080;2022-12-17T03:23:57;100088.63;;;1.10;100.00
63654;BME280;49809;47.418;19.080;2022-12-17T03:27:42;100088.44;;;1.18;100.00
63654;BME280;49809;47.418;19.080;2022-12-17T03:31:21;100088.00;;;1.08;100.00
63654;BME280;49809;47.418;19.080;2022-12-17T03:34:54;100092.44;;;1.14;100.00
63654;BME280;49809;47.418;19.080;2022-12-17T03:38:34;100106.47;;;1.13;100.00
63654;BME280;49809;47.418;19.080;2022-12-17T03:42:13;100104.41;;;1.02;100.00
63654;BME280;49809;47.418;19.080;2022-12-17T03:46:04;100105.97;;;0.90;100.00
63654;BME280;49809;47.418;19.080;2022-12-17T03:49:56;100105.13;;;0.83;100.00
63654;BME280;49809;47.418;19.080;2022-12-17T03:53:34;100115.53;;;0.76;100.00
63654;BME280;49809;47.418;19.080;2022-12-17T03:57:30;100126.69;;;0.70;100.00
63654;BME280;49809;47.418;19.080;2022-12-17T04:01:21;100127.78;;;0.55;100.00
63654;BME280;49809;47.418;19.080;2022-12-17T04:05:19;100128.94;;;0.46;100.00
63654;BME280;49809;47.418;19.080;2022-12-17T04:09:17;100131.44;;;0.32;100.00
63654;BME280;49809;47.418;19.080;2022-12-17T04:13:12;100122.03;;;0.31;100.00
63654;BME280;49809;47.418;19.080;2022-12-17T04:17:05;100120.06;;;0.33;100.00
63654;BME280;49809;47.418;19.080;2022-12-17T04:20:41;100124.78;;;0.23;100.00
63654;BME280;49809;47.418;19.080;2022-12-17T04:24:18;100108.28;;;0.16;100.00
63654;BME280;49809;47.418;19.080;2022-12-17T04:28:04;100122.59;;;0.06;100.00
63654;BME280;49809;47.418;19.080;2022-12-17T04:31:51;100134.44;;;-0.13;100.00
63654;BME280;49809;47.418;19.080;2022-12-17T04:35:38;100138.50;;;-0.11;100.00
63654;BME280;49809;47.418;19.080;2022-12-17T04:39:30;100161.69;;;-0.09;100.00
63654;BME280;49809;47.418;19.080;2022-12-17T04:43:15;100169.75;;;-0.04;100.00
63654;BME280;49809;47.418;19.080;2022-12-17T04:47:07;100175.25;;;-0.14;100.00
63654;BME280;49809;47.418;19.080;2022-12-17T04:51:05;100176.97;;;-0.06;100.00
63654;BME280;49809;47.418;19.080;2022-12-17T04:54:42;100180.41;;;-0.20;100.00
63654;BME280;49809;47.418;19.080;2022-12-17T04:58:17;100198.12;;;-0.30;100.00
63654;BME280;49809;47.418;19.080;2022-12-17T05:01:51;100204.13;;;-0.30;100.00
63654;BME280;49809;47.418;19.080;2022-12-17T05:05:35;100202.03;;;-0.20;100.00
63654;BME280;49809;47.418;19.080;2022-12-17T05:09:29;100210.06;;;-0.36;100.00
63654;BME280;49809;47.418;19.080;2022-12-17T05:13:20;100192.28;;;-0.32;100.00
63654;BME280;49809;47.418;19.080;2022-12-17T05:17:12;100190.94;;;-0.43;100.00
63654;BME280;49809;47.418;19.080;2022-12-17T05:21:04;100199.31;;;-0.48;100.00
63654;BME280;49809;47.418;19.080;2022-12-17T05:25:01;100230.97;;;-0.44;100.00
63654;BME280;49809;47.418;19.080;2022-12-17T05:28:56;100225.66;;;-0.51;100.00
63654;BME280;49809;47.418;19.080;2022-12-17T05:32:33;100241.66;;;-0.54;100.00
63654;BME280;49809;47.418;19.080;2022-12-17T05:36:04;100237.06;;;-0.66;100.00
63654;BME280;49809;47.418;19.080;2022-12-17T05:40:00;100257.25;;;-0.68;100.00
63654;BME280;49809;47.418;19.080;2022-12-17T05:43:53;100255.62;;;-0.69;100.00
63654;BME280;49809;47.418;19.080;2022-12-17T05:47:43;100270.25;;;-0.68;100.00
63654;BME280;49809;47.418;19.080;2022-12-17T05:51:16;100284.28;;;-0.63;100.00
63654;BME280;49809;47.418;19.080;2022-12-17T05:55:15;100282.16;;;-0.74;100.00
63654;BME280;49809;47.418;19.080;2022-12-17T05:58:52;100283.41;;;-0.70;100.00
63654;BME280;49809;47.418;19.080;2022-12-17T06:02:37;100271.94;;;-0.75;100.00
63654;BME280;49809;47.418;19.080;2022-12-17T06:06:08;100270.59;;;-0.71;100.00
63654;BME280;49809;47.418;19.080;2022-12-17T06:10:03;100286.44;;;-0.81;100.00
63654;BME280;49809;47.418;19.080;2022-12-17T06:13:56;100294.44;;;-0.82;100.00
63654;BME280;49809;47.418;19.080;2022-12-17T06:17:51;100279.53;;;-0.89;100.00
63654;BME280;49809;47.418;19.080;2022-12-17T06:21:35;100303.09;;;-0.90;100.00
63654;BME280;49809;47.418;19.080;2022-12-17T06:25:29;100316.44;;;-0.93;100.00
63654;BME280;49809;47.418;19.080;2022-12-17T06:29:19;100325.63;;;-1.05;100.00
63654;BME280;49809;47.418;19.080;2022-12-17T06:33:13;100328.19;;;-0.97;100.00
63654;BME280;49809;47.418;19.080;2022-12-17T06:37:02;100329.44;;;-0.93;100.00
63654;BME280;49809;47.418;19.080;2022-12-17T06:40:52;100336.94;;;-0.98;100.00
63654;BME280;49809;47.418;19.080;2022-12-17T06:44:39;100347.34;;;-0.98;100.00
63654;BME280;49809;47.418;19.080;2022-12-17T06:48:33;100355.47;;;-1.01;100.00
63654;BME280;49809;47.418;19.080;2022-12-17T06:52:13;100356.41;;;-0.94;100.00
63654;BME280;49809;47.418;19.080;2022-12-17T06:56:09;100376.09;;;-1.00;99.80
63654;BME280;49809;47.418;19.080;2022-12-17T07:00:01;100385.22;;;-1.04;99.43
63654;BME280;49809;47.418;19.080;2022-12-17T07:03:38;100404.28;;;-0.89;100.00
63654;BME280;49809;47.418;19.080;2022-12-17T07:07:31;100405.00;;;-0.80;98.51
63654;BME280;49809;47.418;19.080;2022-12-17T07:11:07;100406.34;;;-0.84;99.70
63654;BME280;49809;47.418;19.080;2022-12-17T07:14:46;100412.12;;;-0.74;98.77
63654;BME280;49809;47.418;19.080;2022-12-17T07:18:34;100409.50;;;-0.74;97.72
63654;BME280;49809;47.418;19.080;2022-12-17T07:22:25;100414.19;;;-0.69;97.63
63654;BME280;49809;47.418;19.080;2022-12-17T07:26:01;100421.62;;;-0.66;98.51
63654;BME280;49809;47.418;19.080;2022-12-17T07:29:51;100417.16;;;-0.58;98.54
63654;BME280;49809;47.418;19.080;2022-12-17T07:33:39;100430.44;;;-0.53;97.45
63654;BME280;49809;47.418;19.080;2022-12-17T07:37:39;100444.91;;;-0.50;97.42
63654;BME280;49809;47.418;19.080;2022-12-17T07:41:24;100452.25;;;-0.54;98.50
63654;BME280;49809;47.418;19.080;2022-12-17T07:45:10;100459.06;;;-0.38;97.72
63654;BME280;49809;47.418;19.080;2022-12-17T07:49:09;100467.19;;;-0.18;94.54
63654;BME280;49809;47.418;19.080;2022-12-17T07:53:04;100461.19;;;-0.04;95.12
63654;BME280;49809;47.418;19.080;2022-12-17T07:56:53;100468.28;;;0.02;94.47
63654;BME280;49809;47.418;19.080;2022-12-17T08:00:49;100468.28;;;0.17;94.55
63654;BME280;49809;47.418;19.080;2022-12-17T08:04:35;100461.66;;;0.14;93.61
63654;BME280;49809;47.418;19.080;2022-12-17T08:08:33;100461.03;;;0.27;93.02
63654;BME280;49809;47.418;19.080;2022-12-17T08:12:10;100462.72;;;0.20;92.79
63654;BME280;49809;47.418;19.080;2022-12-17T08:16:05;100464.34;;;0.21;94.13
63654;BME280;49809;47.418;19.080;2022-12-17T08:20:02;100485.16;;;0.21;92.89
63654;BME280;49809;47.418;19.080;2022-12-17T08:24:04;100483.81;;;0.25;92.73
63654;BME280;49809;47.418;19.080;2022-12-17T08:27:59;100498.56;;;0.32;93.56
63654;BME280;49809;47.418;19.080;2022-12-17T08:32:25;100508.25;;;0.38;90.83
63654;BME280;49809;47.418;19.080;2022-12-17T08:36:31;100526.13;;;0.41;90.61
63654;BME280;49809;47.418;19.080;2022-12-17T08:40:36;100533.28;;;0.25;90.65
63654;BME280;49809;47.418;19.080;2022-12-17T08:44:41;100522.78;;;0.18;89.32
63654;BME280;49809;47.418;19.080;2022-12-17T08:48:48;100526.28;;;0.25;90.15
63654;BME280;49809;47.418;19.080;2022-12-17T08:52:33;100531.97;;;0.43;90.10
63654;BME280;49809;47.418;19.080;2022-12-17T08:56:14;100526.66;;;0.52;90.06
63654;BME280;49809;47.418;19.080;2022-12-17T09:00:22;100533.22;;;0.62;87.92
63654;BME280;49809;47.418;19.080;2022-12-17T09:04:15;100540.84;;;1.14;87.29
63654;BME280;49809;47.418;19.080;2022-12-17T09:08:05;100554.47;;;0.95;86.34
63654;BME280;49809;47.418;19.080;2022-12-17T09:12:33;100556.06;;;1.11;84.97
63654;BME280;49809;47.418;19.080;2022-12-17T09:16:03;100550.06;;;1.31;84.38
63654;BME280;49809;47.418;19.080;2022-12-17T09:19:55;100544.75;;;1.40;84.98
63654;BME280;49809;47.418;19.080;2022-12-17T09:23:47;100569.50;;;1.50;83.21
63654;BME280;49809;47.418;19.080;2022-12-17T09:28:11;100564.44;;;1.63;83.00
63654;BME280;49809;47.418;19.080;2022-12-17T09:31:59;100588.22;;;1.54;82.72
63654;BME280;49809;47.418;19.080;2022-12-17T09:35:36;100586.31;;;1.26;81.83
63654;BME280;49809;47.418;19.080;2022-12-17T09:39:43;100581.16;;;1.69;83.97
63654;BME280;49809;47.418;19.080;2022-12-17T09:43:57;100579.66;;;1.81;83.19
63654;BME280;49809;47.418;19.080;2022-12-17T09:48:16;100578.97;;;1.72;82.16
63654;BME280;49809;47.418;19.080;2022-12-17T09:52:26;100589.06;;;1.61;82.48
63654;BME280;49809;47.418;19.080;2022-12-17T09:56:22;100594.50;;;1.59;82.19
63654;BME280;49809;47.418;19.080;2022-12-17T10:00:23;100591.50;;;1.26;80.25
63654;BME280;49809;47.418;19.080;2022-12-17T10:04:16;100587.91;;;1.27;83.31
63654;BME280;49809;47.418;19.080;2022-12-17T10:08:14;100601.94;;;1.26;84.75
63654;BME280;49809;47.418;19.080;2022-12-17T10:12:18;100607.81;;;1.28;82.29
63654;BME280;49809;47.418;19.080;2022-12-17T10:20:12;100633.41;;;1.40;82.62
63654;BME280;49809;47.418;19.080;2022-12-17T10:24:09;100635.78;;;1.56;82.56
63654;BME280;49809;47.418;19.080;2022-12-17T10:27:52;100638.41;;;1.56;82.47
63654;BME280;49809;47.418;19.080;2022-12-17T10:31:32;100643.22;;;1.95;80.60
63654;BME280;49809;47.418;19.080;2022-12-17T10:35:34;100652.78;;;2.30;79.48
63654;BME280;49809;47.418;19.080;2022-12-17T10:39:22;100653.91;;;2.21;78.74
63654;BME280;49809;47.418;19.080;2022-12-17T10:43:29;100657.81;;;2.10;78.40
63654;BME280;49809;47.418;19.080;2022-12-17T10:47:07;100673.03;;;1.64;80.00
63654;BME280;49809;47.418;19.080;2022-12-17T10:51:05;100673.12;;;1.92;80.18
63654;BME280;49809;47.418;19.080;2022-12-17T10:55:00;100682.62;;;2.00;78.03
63654;BME280;49809;47.418;19.080;2022-12-17T10:59:10;100686.22;;;1.78;80.48
63654;BME280;49809;47.418;19.080;2022-12-17T11:03:03;100691.09;;;1.15;80.08
63654;BME280;49809;47.418;19.080;2022-12-17T11:06:35;100708.84;;;0.82;81.71
63654;BME280;49809;47.418;19.080;2022-12-17T11:10:30;100722.75;;;0.75;82.56
63654;BME280;49809;47.418;19.080;2022-12-17T11:13:56;100731.31;;;0.83;83.35
63654;BME280;49809;47.418;19.080;2022-12-17T11:17:27;100750.78;;;0.73;83.34
63654;BME280;49809;47.418;19.080;2022-12-17T11:20:59;100752.66;;;1.16;83.48
63654;BME280;49809;47.418;19.080;2022-12-17T11:24:55;100741.69;;;1.36;80.21
63654;BME280;49809;47.418;19.080;2022-12-17T11:28:23;100736.56;;;1.27;81.36
63654;BME280;49809;47.418;19.080;2022-12-17T11:35:27;100737.19;;;1.00;82.44
63654;BME280;49809;47.418;19.080;2022-12-17T11:42:29;100740.62;;;1.30;81.38
63654;BME280;49809;47.418;19.080;2022-12-17T12:08:28;100800.34;;;1.40;80.90
63654;BME280;49809;47.418;19.080;2022-12-17T12:12:14;100803.19;;;1.15;80.76
63654;BME280;49809;47.418;19.080;2022-12-17T12:15:59;100813.84;;;0.91;81.02
63654;BME280;49809;47.418;19.080;2022-12-17T12:20:19;100832.09;;;0.91;81.43
63654;BME280;49809;47.418;19.080;2022-12-17T12:27:50;100820.94;;;0.97;81.29
63654;BME280;49809;47.418;19.080;2022-12-17T12:34:44;100839.12;;;1.05;81.07
63654;BME280;49809;47.418;19.080;2022-12-17T12:38:15;100844.34;;;1.05;81.35
63654;BME280;49809;47.418;19.080;2022-12-17T12:42:27;100831.94;;;1.07;80.61
63654;BME280;49809;47.418;19.080;2022-12-17T12:46:25;100841.41;;;1.23;80.31
63654;BME280;49809;47.418;19.080;2022-12-17T12:49:59;100835.75;;;1.19;80.04
63654;BME280;49809;47.418;19.080;2022-12-17T12:53:23;100856.16;;;1.16;80.32
63654;BME280;49809;47.418;19.080;2022-12-17T12:56:46;100848.31;;;1.01;80.40
63654;BME280;49809;47.418;19.080;2022-12-17T13:00:39;100851.53;;;1.03;81.88
63654;BME280;49809;47.418;19.080;2022-12-17T13:04:27;100853.34;;;0.80;80.60
63654;BME280;49809;47.418;19.080;2022-12-17T13:11:36;100862.88;;;0.65;80.30
63654;BME280;49809;47.418;19.080;2022-12-17T13:18:14;100898.22;;;0.67;81.04
63654;BME280;49809;47.418;19.080;2022-12-17T13:24:26;100913.88;;;0.59;80.96
63654;BME280;49809;47.418;19.080;2022-12-17T13:30:39;100923.53;;;1.04;80.49
63654;BME280;49809;47.418;19.080;2022-12-17T13:40:18;100952.59;;;0.93;80.16
63654;BME280;49809;47.418;19.080;2022-12-17T13:43:43;100958.06;;;0.53;80.63
63654;BME280;49809;47.418;19.080;2022-12-17T13:46:52;100965.38;;;0.49;82.22
63654;BME280;49809;47.418;19.080;2022-12-17T13:50:02;100955.75;;;0.58;81.75
63654;BME280;49809;47.418;19.080;2022-12-17T13:53:27;100968.94;;;0.56;80.90
63654;BME280;49809;47.418;19.080;2022-12-17T13:56:33;100961.31;;;0.47;80.84
63654;BME280;49809;47.418;19.080;2022-12-17T13:59:37;100961.22;;;0.32;81.62
63654;BME280;49809;47.418;19.080;2022-12-17T14:02:43;100967.06;;;0.34;81.40
63654;BME280;49809;47.418;19.080;2022-12-17T14:06:04;100984.19;;;0.20;82.53
63654;BME280;49809;47.418;19.080;2022-12-17T14:09:15;100997.53;;;0.33;82.25
63654;BME280;49809;47.418;19.080;2022-12-17T14:12:40;100999.81;;;0.20;82.42
63654;BME280;49809;47.418;19.080;2022-12-17T14:15:48;101001.25;;;0.31;81.34
63654;BME280;49809;47.418;19.080;2022-12-17T14:18:58;100999.81;;;0.20;82.15
63654;BME280;49809;47.418;19.080;2022-12-17T14:22:02;101005.72;;;-0.18;82.98
63654;BME280;49809;47.418;19.080;2022-12-17T14:25:14;101018.41;;;-0.23;83.17
63654;BME280;49809;47.418;19.080;2022-12-17T14:28:33;101029.81;;;-0.40;83.24
63654;BME280;49809;47.418;19.080;2022-12-17T14:31:37;101040.84;;;-0.38;83.74
63654;BME280;49809;47.418;19.080;2022-12-17T14:34:43;101036.28;;;-0.53;83.43
63654;BME280;49809;47.418;19.080;2022-12-17T14:37:47;101048.47;;;-0.69;84.10
63654;BME280;49809;47.418;19.080;2022-12-17T14:40:51;101063.94;;;-0.60;84.76
63654;BME280;49809;47.418;19.080;2022-12-17T14:44:00;101070.72;;;-0.67;85.17
63654;BME280;49809;47.418;19.080;2022-12-17T14:47:16;101061.13;;;-0.74;85.22
63654;BME280;49809;47.418;19.080;2022-12-17T14:50:37;101061.94;;;-0.74;86.25
63654;BME280;49809;47.418;19.080;2022-12-17T14:53:42;101059.00;;;-0.79;84.63
63654;BME280;49809;47.418;19.080;2022-12-17T14:56:48;101073.09;;;-0.90;86.24
63654;BME280;49809;47.418;19.080;2022-12-17T14:59:51;101081.37;;;-0.94;86.78
63654;BME280;49809;47.418;19.080;2022-12-17T15:02:58;101083.66;;;-0.91;nan
63654;BME280;49809;47.418;19.080;2022-12-17T15:09:27;101103.12;;;-1.03;87.57
63654;BME280;49809;47.418;19.080;2022-12-17T15:12:29;101110.22;;;-1.05;87.15
63654;BME280;49809;47.418;19.080;2022-12-17T15:15:33;101114.25;;;-1.11;87.83
63654;BME280;49809;47.418;19.080;2022-12-17T15:18:38;101122.72;;;-1.17;88.28
63654;BME280;49809;47.418;19.080;2022-12-17T15:21:46;101129.47;;;-1.24;88.55
63654;BME280;49809;47.418;19.080;2022-12-17T15:24:49;101138.91;;;-1.23;88.36
63654;BME280;49809;47.418;19.080;2022-12-17T15:27:52;101128.81;;;-1.26;88.76
63654;BME280;49809;47.418;19.080;2022-12-17T15:30:56;101135.44;;;-1.32;88.68
63654;BME280;49809;47.418;19.080;2022-12-17T15:34:00;101140.94;;;-1.35;89.30
63654;BME280;49809;47.418;19.080;2022-12-17T15:37:04;101143.88;;;-1.29;88.78
63654;BME280;49809;47.418;19.080;2022-12-17T15:40:10;101149.25;;;-1.31;88.92
63654;BME280;49809;47.418;19.080;2022-12-17T15:43:13;101161.78;;;-1.26;88.11
63654;BME280;49809;47.418;19.080;2022-12-17T15:46:17;101169.22;;;-1.32;87.94
63654;BME280;49809;47.418;19.080;2022-12-17T15:49:20;101164.25;;;-1.43;89.18
63654;BME280;49809;47.418;19.080;2022-12-17T15:52:25;101176.94;;;-1.40;88.42
63654;BME280;49809;47.418;19.080;2022-12-17T15:56:03;101169.00;;;-1.38;87.66
63654;BME280;49809;47.418;19.080;2022-12-17T15:59:26;101177.25;;;-1.43;88.37
63654;BME280;49809;47.418;19.080;2022-12-17T16:02:29;101179.84;;;-1.43;87.84
63654;BME280;49809;47.418;19.080;2022-12-17T16:05:33;101192.06;;;-1.35;87.68
63654;BME280;49809;47.418;19.080;2022-12-17T16:08:37;101184.72;;;-1.40;87.88
63654;BME280;49809;47.418;19.080;2022-12-17T16:12:03;101190.53;;;-1.46;88.63
63654;BME280;49809;47.418;19.080;2022-12-17T16:15:06;101203.22;;;-1.43;87.98
63654;BME280;49809;47.418;19.080;2022-12-17T16:18:10;101211.09;;;-1.52;88.76
63654;BME280;49809;47.418;19.080;2022-12-17T16:21:13;101214.78;;;-1.55;88.70
63654;BME280;49809;47.418;19.080;2022-12-17T16:24:17;101217.47;;;-1.64;89.50
63654;BME280;49809;47.418;19.080;2022-12-17T16:27:22;101226.81;;;-1.54;88.64
63654;BME280;49809;47.418;19.080;2022-12-17T16:30:27;101219.84;;;-1.53;88.57
63654;BME280;49809;47.418;19.080;2022-12-17T16:33:35;101233.94;;;-1.56;88.62
63654;BME280;49809;47.418;19.080;2022-12-17T16:36:41;101239.78;;;-1.54;88.55
63654;BME280;49809;47.418;19.080;2022-12-17T16:39:50;101252.41;;;-1.59;88.74
63654;BME280;49809;47.418;19.080;2022-12-17T16:43:13;101249.81;;;-1.59;88.49
63654;BME280;49809;47.418;19.080;2022-12-17T16:49:31;101246.94;;;-1.56;88.31
63654;BME280;49809;47.418;19.080;2022-12-17T16:52:40;101261.38;;;-1.53;88.03
63654;BME280;49809;47.418;19.080;2022-12-17T16:55:46;101258.72;;;-1.61;88.79
63654;BME280;49809;47.418;19.080;2022-12-17T16:58:49;101257.91;;;-1.62;89.08
63654;BME280;49809;47.418;19.080;2022-12-17T17:01:53;101252.22;;;-1.65;89.11
63654;BME280;49809;47.418;19.080;2022-12-17T17:05:19;101247.84;;;-1.65;89.24
63654;BME280;49809;47.418;19.080;2022-12-17T17:08:22;101261.78;;;-1.66;89.50
63654;BME280;49809;47.418;19.080;2022-12-17T17:11:29;101257.41;;;-1.65;89.42
63654;BME280;49809;47.418;19.080;2022-12-17T17:14:32;101268.28;;;-1.62;89.90
63654;BME280;49809;47.418;19.080;2022-12-17T17:17:39;101270.22;;;-1.64;90.20
63654;BME280;49809;47.418;19.080;2022-12-17T17:21:23;101279.25;;;-1.68;90.35
63654;BME280;49809;47.418;19.080;2022-12-17T17:24:25;101295.50;;;-1.66;90.38
63654;BME280;49809;47.418;19.080;2022-12-17T17:27:32;101290.00;;;-1.63;90.76
63654;BME280;49809;47.418;19.080;2022-12-17T17:30:40;101288.25;;;-1.62;90.91
63654;BME280;49809;47.418;19.080;2022-12-17T17:33:47;101300.91;;;-1.59;90.62
63654;BME280;49809;47.418;19.080;2022-12-17T17:36:54;101296.47;;;-1.67;91.29
63654;BME280;49809;47.418;19.080;2022-12-17T17:39:58;101302.34;;;-1.65;91.78
63654;BME280;49809;47.418;19.080;2022-12-17T17:43:02;101306.84;;;-1.67;91.71
63654;BME280;49809;47.418;19.080;2022-12-17T17:46:17;101314.94;;;-1.70;92.14
63654;BME280;49809;47.418;19.080;2022-12-17T17:50:02;101315.59;;;-1.68;91.76
63654;BME280;49809;47.418;19.080;2022-12-17T17:53:05;101324.06;;;-1.66;91.63
63654;BME280;49809;47.418;19.080;2022-12-17T17:56:11;101327.94;;;-1.70;91.81
63654;BME280;49809;47.418;19.080;2022-12-17T17:59:38;101327.63;;;-1.67;91.52
63654;BME280;49809;47.418;19.080;2022-12-17T18:02:42;101318.72;;;-1.64;91.43
63654;BME280;49809;47.418;19.080;2022-12-17T18:05:46;101331.19;;;-1.68;91.43
63654;BME280;49809;47.418;19.080;2022-12-17T18:08:53;101338.59;;;-1.73;91.90
63654;BME280;49809;47.418;19.080;2022-12-17T18:12:21;101342.69;;;-1.70;91.43
63654;BME280;49809;47.418;19.080;2022-12-17T18:16:03;101353.06;;;-1.70;91.33
63654;BME280;49809;47.418;19.080;2022-12-17T18:19:10;101358.53;;;-1.73;91.54
63654;BME280;49809;47.418;19.080;2022-12-17T18:22:34;101360.16;;;-1.72;91.66
63654;BME280;49809;47.418;19.080;2022-12-17T18:25:40;101363.50;;;-1.80;92.10
63654;BME280;49809;47.418;19.080;2022-12-17T18:28:44;101369.41;;;-1.88;92.49
63654;BME280;49809;47.418;19.080;2022-12-17T18:31:53;101373.50;;;-1.85;92.91
63654;BME280;49809;47.418;19.080;2022-12-17T18:35:16;101388.12;;;-1.84;92.75
63654;BME280;49809;47.418;19.080;2022-12-17T18:38:42;101397.13;;;-1.88;92.74
63654;BME280;49809;47.418;19.080;2022-12-17T18:42:07;101407.22;;;-1.85;92.41
63654;BME280;49809;47.418;19.080;2022-12-17T18:45:29;101416.28;;;-1.89;92.50
63654;BME280;49809;47.418;19.080;2022-12-17T18:48:45;101421.03;;;-1.85;91.89
63654;BME280;49809;47.418;19.080;2022-12-17T18:51:49;101416.28;;;-1.89;92.41
63654;BME280;49809;47.418;19.080;2022-12-17T18:54:55;101421.06;;;-1.94;92.38
63654;BME280;49809;47.418;19.080;2022-12-17T18:58:33;101436.34;;;-1.91;92.24
63654;BME280;49809;47.418;19.080;2022-12-17T19:02:03;101437.97;;;-1.90;92.28
63654;BME280;49809;47.418;19.080;2022-12-17T19:05:38;101452.31;;;-1.86;91.86
63654;BME280;49809;47.418;19.080;2022-12-17T19:09:22;101458.34;;;-1.95;92.04
63654;BME280;49809;47.418;19.080;2022-12-17T19:13:07;101463.75;;;-1.89;91.60
63654;BME280;49809;47.418;19.080;2022-12-17T19:16:22;101464.19;;;-1.93;91.51
63654;BME280;49809;47.418;19.080;2022-12-17T19:19:43;101474.56;;;-1.93;91.55
63654;BME280;49809;47.418;19.080;2022-12-17T19:22:46;101470.63;;;-1.97;91.76
63654;BME280;49809;47.418;19.080;2022-12-17T19:25:53;101485.25;;;-1.96;91.63
63654;BME280;49809;47.418;19.080;2022-12-17T19:29:00;101502.88;;;-2.00;91.45
63654;BME280;49809;47.418;19.080;2022-12-17T19:32:44;101509.84;;;-2.00;91.76
63654;BME280;49809;47.418;19.080;2022-12-17T19:36:10;101508.06;;;-2.00;91.92
63654;BME280;49809;47.418;19.080;2022-12-17T19:39:49;101508.19;;;-2.01;91.82
63654;BME280;49809;47.418;19.080;2022-12-17T19:43:32;101515.72;;;-2.08;92.21
63654;BME280;49809;47.418;19.080;2022-12-17T19:47:13;101526.38;;;-2.11;92.33
63654;BME280;49809;47.418;19.080;2022-12-17T19:50:53;101535.94;;;-2.21;92.99